sensor_id;sensor_type;location;lat;lon;timestamp;P1;durP1;ratioP1;P2;durP2;ratioP2
39994;SDS011;25686;51.908;10.418;2022-09-29T00:00:52;7.05;;;3.80;;
39994;SDS011;25686;51.908;10.418;2022-09-29T00:02:53;6.80;;;3.88;;
39994;SDS011;25686;51.908;10.418;2022-09-29T00:04:54;5.13;;;3.33;;
39994;SDS011;25686;51.908;10.418;2022-09-29T00:06:55;5.93;;;3.53;;
39994;SDS011;25686;51.908;10.418;2022-09-29T00:08:56;5.72;;;3.55;;
39994;SDS011;25686;51.908;10.418;2022-09-29T00:10:57;6.85;;;3.25;;
39994;SDS011;25686;51.908;10.418;2022-09-29T00:12:58;5.53;;;3.47;;
39994;SDS011;25686;51.908;10.418;2022-09-29T00:14:59;6.97;;;4.25;;
39994;SDS011;25686;51.908;10.418;2022-09-29T00:17:00;7.18;;;3.53;;
39994;SDS011;25686;51.908;10.418;2022-09-29T00:19:01;8.63;;;3.30;;
39994;SDS011;25686;51.908;10.418;2022-09-29T00:21:05;5.45;;;3.28;;
39994;SDS011;25686;51.908;10.418;2022-09-29T00:23:06;8.37;;;3.50;;
39994;SDS011;25686;51.908;10.418;2022-09-29T00:25:07;4.07;;;2.78;;
39994;SDS011;25686;51.908;10.418;2022-09-29T00:27:08;6.55;;;3.15;;
39994;SDS011;25686;51.908;10.418;2022-09-29T00:29:09;6.18;;;3.10;;
39994;SDS011;25686;51.908;10.418;2022-09-29T00:31:10;5.40;;;3.03;;
39994;SDS011;25686;51.908;10.418;2022-09-29T00:33:11;4.03;;;2.87;;
39994;SDS011;25686;51.908;10.418;2022-09-29T00:35:12;6.18;;;2.85;;
39994;SDS011;25686;51.908;10.418;2022-09-29T00:37:17;3.83;;;2.80;;
39994;SDS011;25686;51.908;10.418;2022-09-29T00:39:18;7.15;;;2.70;;
39994;SDS011;25686;51.908;10.418;2022-09-29T00:41:23;5.57;;;3.20;;
39994;SDS011;25686;51.908;10.418;2022-09-29T00:43:47;6.03;;;2.77;;
39994;SDS011;25686;51.908;10.418;2022-09-29T00:45:46;3.70;;;2.90;;
39994;SDS011;25686;51.908;10.418;2022-09-29T00:47:52;6.47;;;3.27;;
39994;SDS011;25686;51.908;10.418;2022-09-29T00:52:36;8.67;;;3.63;;
39994;SDS011;25686;51.908;10.418;2022-09-29T00:54:41;6.47;;;4.43;;
39994;SDS011;25686;51.908;10.418;2022-09-29T00:56:43;10.20;;;5.10;;
39994;SDS011;25686;51.908;10.418;2022-09-29T00:58:48;7.70;;;5.73;;
39994;SDS011;25686;51.908;10.418;2022-09-29T01:00:53;10.53;;;6.63;;
39994;SDS011;25686;51.908;10.418;2022-09-29T01:03:04;12.50;;;7.00;;
39994;SDS011;25686;51.908;10.418;2022-09-29T01:05:09;12.53;;;7.30;;
39994;SDS011;25686;51.908;10.418;2022-09-29T01:07:11;15.77;;;8.03;;
39994;SDS011;25686;51.908;10.418;2022-09-29T01:09:13;13.60;;;8.50;;
39994;SDS011;25686;51.908;10.418;2022-09-29T01:11:15;17.60;;;9.87;;
39994;SDS011;25686;51.908;10.418;2022-09-29T01:13:18;15.77;;;9.67;;
39994;SDS011;25686;51.908;10.418;2022-09-29T01:15:19;18.67;;;10.60;;
39994;SDS011;25686;51.908;10.418;2022-09-29T01:17:22;18.87;;;10.73;;
39994;SDS011;25686;51.908;10.418;2022-09-29T01:28:23;23.08;;;11.57;;
39994;SDS011;25686;51.908;10.418;2022-09-29T01:32:51;16.47;;;10.57;;
39994;SDS011;25686;51.908;10.418;2022-09-29T01:35:04;20.53;;;11.83;;
39994;SDS011;25686;51.908;10.418;2022-09-29T01:39:39;17.80;;;10.47;;
39994;SDS011;25686;51.908;10.418;2022-09-29T01:43:50;21.00;;;12.07;;
39994;SDS011;25686;51.908;10.418;2022-09-29T01:46:01;24.93;;;14.10;;
39994;SDS011;25686;51.908;10.418;2022-09-29T01:48:04;26.80;;;13.80;;
39994;SDS011;25686;51.908;10.418;2022-09-29T01:50:07;25.57;;;14.20;;
39994;SDS011;25686;51.908;10.418;2022-09-29T01:52:12;24.33;;;13.57;;
39994;SDS011;25686;51.908;10.418;2022-09-29T01:54:16;25.60;;;14.83;;
39994;SDS011;25686;51.908;10.418;2022-09-29T01:56:24;27.77;;;14.80;;
39994;SDS011;25686;51.908;10.418;2022-09-29T01:58:32;24.80;;;14.17;;
39994;SDS011;25686;51.908;10.418;2022-09-29T02:00:37;25.43;;;14.17;;
39994;SDS011;25686;51.908;10.418;2022-09-29T02:02:39;27.97;;;14.67;;
39994;SDS011;25686;51.908;10.418;2022-09-29T02:04:43;25.23;;;14.53;;
39994;SDS011;25686;51.908;10.418;2022-09-29T02:06:50;25.60;;;14.90;;
39994;SDS011;25686;51.908;10.418;2022-09-29T02:08:55;28.20;;;15.37;;
39994;SDS011;25686;51.908;10.418;2022-09-29T02:10:58;28.00;;;15.07;;
39994;SDS011;25686;51.908;10.418;2022-09-29T02:13:02;25.20;;;14.83;;
39994;SDS011;25686;51.908;10.418;2022-09-29T02:15:05;27.03;;;15.47;;
39994;SDS011;25686;51.908;10.418;2022-09-29T02:17:13;24.10;;;14.57;;
39994;SDS011;25686;51.908;10.418;2022-09-29T02:19:19;24.33;;;14.20;;
39994;SDS011;25686;51.908;10.418;2022-09-29T02:21:22;24.10;;;14.83;;
39994;SDS011;25686;51.908;10.418;2022-09-29T02:23:23;27.20;;;14.97;;
39994;SDS011;25686;51.908;10.418;2022-09-29T02:25:24;26.70;;;14.37;;
39994;SDS011;25686;51.908;10.418;2022-09-29T02:27:25;28.63;;;15.30;;
39994;SDS011;25686;51.908;10.418;2022-09-29T02:29:28;24.63;;;14.30;;
39994;SDS011;25686;51.908;10.418;2022-09-29T02:31:30;25.07;;;15.23;;
39994;SDS011;25686;51.908;10.418;2022-09-29T02:33:31;25.30;;;14.70;;
39994;SDS011;25686;51.908;10.418;2022-09-29T02:38:09;26.73;;;15.13;;
39994;SDS011;25686;51.908;10.418;2022-09-29T02:42:17;33.53;;;17.20;;
39994;SDS011;25686;51.908;10.418;2022-09-29T02:48:43;34.43;;;18.47;;
39994;SDS011;25686;51.908;10.418;2022-09-29T02:57:07;35.50;;;19.77;;
39994;SDS011;25686;51.908;10.418;2022-09-29T02:59:15;34.60;;;19.00;;
39994;SDS011;25686;51.908;10.418;2022-09-29T03:01:18;37.73;;;19.27;;
39994;SDS011;25686;51.908;10.418;2022-09-29T03:03:18;40.00;;;19.30;;
39994;SDS011;25686;51.908;10.418;2022-09-29T03:05:20;35.80;;;19.63;;
39994;SDS011;25686;51.908;10.418;2022-09-29T03:07:22;37.13;;;20.47;;
39994;SDS011;25686;51.908;10.418;2022-09-29T03:09:23;38.43;;;19.57;;
39994;SDS011;25686;51.908;10.418;2022-09-29T03:11:24;35.27;;;19.57;;
39994;SDS011;25686;51.908;10.418;2022-09-29T03:13:25;33.87;;;19.53;;
39994;SDS011;25686;51.908;10.418;2022-09-29T03:15:26;36.03;;;19.97;;
39994;SDS011;25686;51.908;10.418;2022-09-29T03:17:27;39.53;;;20.33;;
39994;SDS011;25686;51.908;10.418;2022-09-29T03:19:28;37.10;;;19.50;;
39994;SDS011;25686;51.908;10.418;2022-09-29T03:21:29;35.97;;;20.97;;
39994;SDS011;25686;51.908;10.418;2022-09-29T03:23:30;36.23;;;20.30;;
39994;SDS011;25686;51.908;10.418;2022-09-29T03:25:31;37.23;;;20.70;;
39994;SDS011;25686;51.908;10.418;2022-09-29T03:27:32;34.73;;;20.30;;
39994;SDS011;25686;51.908;10.418;2022-09-29T03:29:35;36.83;;;20.67;;
39994;SDS011;25686;51.908;10.418;2022-09-29T03:31:39;35.80;;;20.77;;
39994;SDS011;25686;51.908;10.418;2022-09-29T03:33:40;39.30;;;21.30;;
39994;SDS011;25686;51.908;10.418;2022-09-29T03:35:41;42.00;;;22.73;;
39994;SDS011;25686;51.908;10.418;2022-09-29T03:37:42;38.50;;;21.17;;
39994;SDS011;25686;51.908;10.418;2022-09-29T03:39:43;45.57;;;21.87;;
39994;SDS011;25686;51.908;10.418;2022-09-29T03:41:44;37.40;;;21.33;;
39994;SDS011;25686;51.908;10.418;2022-09-29T03:43:45;42.33;;;22.63;;
39994;SDS011;25686;51.908;10.418;2022-09-29T03:45:47;38.00;;;21.13;;
39994;SDS011;25686;51.908;10.418;2022-09-29T03:47:48;40.97;;;21.67;;
39994;SDS011;25686;51.908;10.418;2022-09-29T03:49:50;45.37;;;22.37;;
39994;SDS011;25686;51.908;10.418;2022-09-29T03:51:51;42.93;;;23.30;;
39994;SDS011;25686;51.908;10.418;2022-09-29T03:53:52;40.67;;;21.23;;
39994;SDS011;25686;51.908;10.418;2022-09-29T03:55:54;42.97;;;23.13;;
39994;SDS011;25686;51.908;10.418;2022-09-29T03:57:55;40.50;;;22.73;;
39994;SDS011;25686;51.908;10.418;2022-09-29T03:59:56;39.00;;;21.20;;
39994;SDS011;25686;51.908;10.418;2022-09-29T04:01:56;38.93;;;21.60;;
39994;SDS011;25686;51.908;10.418;2022-09-29T04:03:58;39.67;;;21.73;;
39994;SDS011;25686;51.908;10.418;2022-09-29T04:05:58;40.43;;;21.73;;
39994;SDS011;25686;51.908;10.418;2022-09-29T04:07:59;38.73;;;21.57;;
39994;SDS011;25686;51.908;10.418;2022-09-29T04:10:00;37.00;;;21.10;;
39994;SDS011;25686;51.908;10.418;2022-09-29T04:12:02;36.83;;;20.93;;
39994;SDS011;25686;51.908;10.418;2022-09-29T04:14:03;40.27;;;21.47;;
39994;SDS011;25686;51.908;10.418;2022-09-29T04:16:04;36.50;;;20.43;;
39994;SDS011;25686;51.908;10.418;2022-09-29T04:18:05;37.57;;;21.23;;
39994;SDS011;25686;51.908;10.418;2022-09-29T04:20:06;39.00;;;21.37;;
39994;SDS011;25686;51.908;10.418;2022-09-29T04:22:07;39.73;;;21.73;;
39994;SDS011;25686;51.908;10.418;2022-09-29T04:24:08;36.33;;;20.07;;
39994;SDS011;25686;51.908;10.418;2022-09-29T04:26:09;36.13;;;20.73;;
39994;SDS011;25686;51.908;10.418;2022-09-29T04:28:11;35.40;;;19.73;;
39994;SDS011;25686;51.908;10.418;2022-09-29T04:30:12;37.13;;;20.27;;
39994;SDS011;25686;51.908;10.418;2022-09-29T04:32:13;39.20;;;21.77;;
39994;SDS011;25686;51.908;10.418;2022-09-29T04:34:14;36.67;;;20.97;;
39994;SDS011;25686;51.908;10.418;2022-09-29T04:36:15;37.27;;;21.23;;
39994;SDS011;25686;51.908;10.418;2022-09-29T04:38:16;36.17;;;21.17;;
39994;SDS011;25686;51.908;10.418;2022-09-29T04:40:17;34.97;;;19.53;;
39994;SDS011;25686;51.908;10.418;2022-09-29T04:42:18;37.70;;;20.57;;
39994;SDS011;25686;51.908;10.418;2022-09-29T04:44:19;38.33;;;21.80;;
39994;SDS011;25686;51.908;10.418;2022-09-29T04:46:23;38.07;;;20.47;;
39994;SDS011;25686;51.908;10.418;2022-09-29T04:48:24;39.13;;;21.73;;
39994;SDS011;25686;51.908;10.418;2022-09-29T04:50:25;36.63;;;20.33;;
39994;SDS011;25686;51.908;10.418;2022-09-29T04:52:26;40.87;;;21.10;;
39994;SDS011;25686;51.908;10.418;2022-09-29T04:54:33;38.70;;;21.13;;
39994;SDS011;25686;51.908;10.418;2022-09-29T04:56:34;40.57;;;20.77;;
39994;SDS011;25686;51.908;10.418;2022-09-29T04:58:35;42.27;;;21.93;;
39994;SDS011;25686;51.908;10.418;2022-09-29T05:00:36;37.90;;;21.03;;
39994;SDS011;25686;51.908;10.418;2022-09-29T05:02:37;39.47;;;21.97;;
39994;SDS011;25686;51.908;10.418;2022-09-29T05:04:38;41.50;;;21.97;;
39994;SDS011;25686;51.908;10.418;2022-09-29T05:06:39;42.10;;;22.90;;
39994;SDS011;25686;51.908;10.418;2022-09-29T05:08:40;36.17;;;21.40;;
39994;SDS011;25686;51.908;10.418;2022-09-29T05:10:41;35.30;;;20.80;;
39994;SDS011;25686;51.908;10.418;2022-09-29T05:12:49;39.03;;;22.37;;
39994;SDS011;25686;51.908;10.418;2022-09-29T05:14:50;38.50;;;21.70;;
39994;SDS011;25686;51.908;10.418;2022-09-29T05:16:52;39.83;;;20.97;;
39994;SDS011;25686;51.908;10.418;2022-09-29T05:18:53;40.00;;;22.30;;
39994;SDS011;25686;51.908;10.418;2022-09-29T05:20:54;37.10;;;21.87;;
39994;SDS011;25686;51.908;10.418;2022-09-29T05:22:56;41.23;;;22.70;;
39994;SDS011;25686;51.908;10.418;2022-09-29T05:24:57;42.00;;;24.30;;
39994;SDS011;25686;51.908;10.418;2022-09-29T05:26:58;39.93;;;22.83;;
39994;SDS011;25686;51.908;10.418;2022-09-29T05:28:59;38.77;;;23.40;;
39994;SDS011;25686;51.908;10.418;2022-09-29T05:31:01;40.40;;;23.87;;
39994;SDS011;25686;51.908;10.418;2022-09-29T05:33:02;41.17;;;24.13;;
39994;SDS011;25686;51.908;10.418;2022-09-29T05:35:04;40.30;;;23.87;;
39994;SDS011;25686;51.908;10.418;2022-09-29T05:37:05;40.80;;;23.43;;
39994;SDS011;25686;51.908;10.418;2022-09-29T05:39:06;41.03;;;24.10;;
39994;SDS011;25686;51.908;10.418;2022-09-29T05:41:08;39.97;;;23.73;;
39994;SDS011;25686;51.908;10.418;2022-09-29T05:43:10;41.63;;;25.03;;
39994;SDS011;25686;51.908;10.418;2022-09-29T05:45:10;39.13;;;23.30;;
39994;SDS011;25686;51.908;10.418;2022-09-29T05:47:12;38.63;;;23.47;;
39994;SDS011;25686;51.908;10.418;2022-09-29T05:49:13;39.17;;;24.13;;
39994;SDS011;25686;51.908;10.418;2022-09-29T05:51:15;42.17;;;24.60;;
39994;SDS011;25686;51.908;10.418;2022-09-29T05:53:16;36.77;;;23.00;;
39994;SDS011;25686;51.908;10.418;2022-09-29T05:55:17;33.60;;;22.30;;
39994;SDS011;25686;51.908;10.418;2022-09-29T05:57:18;32.70;;;21.23;;
39994;SDS011;25686;51.908;10.418;2022-09-29T05:59:19;31.50;;;21.00;;
39994;SDS011;25686;51.908;10.418;2022-09-29T06:01:23;27.03;;;18.40;;
39994;SDS011;25686;51.908;10.418;2022-09-29T06:03:24;22.15;;;16.83;;
39994;SDS011;25686;51.908;10.418;2022-09-29T06:05:26;19.58;;;15.05;;
39994;SDS011;25686;51.908;10.418;2022-09-29T06:07:27;18.58;;;13.80;;
39994;SDS011;25686;51.908;10.418;2022-09-29T06:09:28;17.55;;;12.32;;
39994;SDS011;25686;51.908;10.418;2022-09-29T06:11:29;17.42;;;13.50;;
39994;SDS011;25686;51.908;10.418;2022-09-29T06:13:31;17.95;;;13.23;;
39994;SDS011;25686;51.908;10.418;2022-09-29T06:15:32;14.43;;;11.75;;
39994;SDS011;25686;51.908;10.418;2022-09-29T06:17:33;19.08;;;13.88;;
39994;SDS011;25686;51.908;10.418;2022-09-29T06:19:34;16.63;;;11.85;;
39994;SDS011;25686;51.908;10.418;2022-09-29T06:21:35;15.60;;;11.77;;
39994;SDS011;25686;51.908;10.418;2022-09-29T06:23:36;15.88;;;11.05;;
39994;SDS011;25686;51.908;10.418;2022-09-29T06:25:38;15.63;;;11.63;;
39994;SDS011;25686;51.908;10.418;2022-09-29T06:27:39;15.20;;;12.20;;
39994;SDS011;25686;51.908;10.418;2022-09-29T06:29:39;15.23;;;11.77;;
39994;SDS011;25686;51.908;10.418;2022-09-29T06:31:40;13.60;;;10.50;;
39994;SDS011;25686;51.908;10.418;2022-09-29T06:33:41;12.57;;;11.23;;
39994;SDS011;25686;51.908;10.418;2022-09-29T06:35:46;13.35;;;11.05;;
39994;SDS011;25686;51.908;10.418;2022-09-29T06:38:06;16.02;;;12.15;;
39994;SDS011;25686;51.908;10.418;2022-09-29T06:40:07;12.68;;;10.23;;
39994;SDS011;25686;51.908;10.418;2022-09-29T06:42:10;12.48;;;10.32;;
39994;SDS011;25686;51.908;10.418;2022-09-29T06:44:11;11.07;;;9.98;;
39994;SDS011;25686;51.908;10.418;2022-09-29T06:46:12;13.25;;;10.70;;
39994;SDS011;25686;51.908;10.418;2022-09-29T06:48:13;18.33;;;12.32;;
39994;SDS011;25686;51.908;10.418;2022-09-29T06:50:14;12.80;;;10.52;;
39994;SDS011;25686;51.908;10.418;2022-09-29T06:52:15;11.32;;;10.13;;
39994;SDS011;25686;51.908;10.418;2022-09-29T06:54:17;12.30;;;10.40;;
39994;SDS011;25686;51.908;10.418;2022-09-29T06:56:23;13.88;;;10.70;;
39994;SDS011;25686;51.908;10.418;2022-09-29T06:58:25;12.52;;;10.85;;
39994;SDS011;25686;51.908;10.418;2022-09-29T07:00:26;11.55;;;10.35;;
39994;SDS011;25686;51.908;10.418;2022-09-29T07:02:27;11.55;;;9.95;;
39994;SDS011;25686;51.908;10.418;2022-09-29T07:04:28;9.77;;;8.77;;
39994;SDS011;25686;51.908;10.418;2022-09-29T07:06:29;11.02;;;8.52;;
39994;SDS011;25686;51.908;10.418;2022-09-29T07:08:30;10.85;;;8.40;;
39994;SDS011;25686;51.908;10.418;2022-09-29T07:10:34;12.90;;;8.73;;
39994;SDS011;25686;51.908;10.418;2022-09-29T07:12:35;11.45;;;8.88;;
39994;SDS011;25686;51.908;10.418;2022-09-29T07:14:35;9.02;;;8.10;;
39994;SDS011;25686;51.908;10.418;2022-09-29T07:16:37;9.10;;;8.20;;
39994;SDS011;25686;51.908;10.418;2022-09-29T07:18:39;9.52;;;8.52;;
39994;SDS011;25686;51.908;10.418;2022-09-29T07:20:40;9.05;;;8.15;;
39994;SDS011;25686;51.908;10.418;2022-09-29T07:22:44;7.85;;;6.97;;
39994;SDS011;25686;51.908;10.418;2022-09-29T07:24:46;8.55;;;7.15;;
39994;SDS011;25686;51.908;10.418;2022-09-29T07:26:47;10.10;;;6.25;;
39994;SDS011;25686;51.908;10.418;2022-09-29T07:28:48;8.45;;;6.28;;
39994;SDS011;25686;51.908;10.418;2022-09-29T07:31:06;7.47;;;6.10;;
39994;SDS011;25686;51.908;10.418;2022-09-29T07:33:08;6.85;;;6.15;;
39994;SDS011;25686;51.908;10.418;2022-09-29T07:35:09;7.05;;;5.65;;
39994;SDS011;25686;51.908;10.418;2022-09-29T07:37:10;5.45;;;4.95;;
39994;SDS011;25686;51.908;10.418;2022-09-29T07:39:11;6.68;;;5.13;;
39994;SDS011;25686;51.908;10.418;2022-09-29T07:41:12;5.10;;;4.60;;
39994;SDS011;25686;51.908;10.418;2022-09-29T07:43:13;4.97;;;4.20;;
39994;SDS011;25686;51.908;10.418;2022-09-29T07:45:15;5.07;;;4.07;;
39994;SDS011;25686;51.908;10.418;2022-09-29T07:47:16;4.35;;;3.90;;
39994;SDS011;25686;51.908;10.418;2022-09-29T07:49:17;4.20;;;3.80;;
39994;SDS011;25686;51.908;10.418;2022-09-29T07:51:19;5.25;;;3.90;;
39994;SDS011;25686;51.908;10.418;2022-09-29T07:53:20;5.05;;;3.67;;
39994;SDS011;25686;51.908;10.418;2022-09-29T07:55:22;4.78;;;4.28;;
39994;SDS011;25686;51.908;10.418;2022-09-29T07:57:25;4.00;;;3.60;;
39994;SDS011;25686;51.908;10.418;2022-09-29T07:59:26;4.25;;;3.85;;
39994;SDS011;25686;51.908;10.418;2022-09-29T08:01:27;5.50;;;4.15;;
39994;SDS011;25686;51.908;10.418;2022-09-29T08:03:28;4.55;;;3.47;;
39994;SDS011;25686;51.908;10.418;2022-09-29T08:05:29;4.20;;;3.00;;
39994;SDS011;25686;51.908;10.418;2022-09-29T08:07:32;3.30;;;2.90;;
39994;SDS011;25686;51.908;10.418;2022-09-29T08:09:33;3.45;;;2.30;;
39994;SDS011;25686;51.908;10.418;2022-09-29T08:11:38;3.03;;;2.45;;
39994;SDS011;25686;51.908;10.418;2022-09-29T08:13:39;5.28;;;2.85;;
39994;SDS011;25686;51.908;10.418;2022-09-29T08:15:40;3.88;;;2.88;;
39994;SDS011;25686;51.908;10.418;2022-09-29T08:17:41;3.10;;;2.60;;
39994;SDS011;25686;51.908;10.418;2022-09-29T08:19:42;2.47;;;2.28;;
39994;SDS011;25686;51.908;10.418;2022-09-29T08:21:43;2.20;;;1.92;;
39994;SDS011;25686;51.908;10.418;2022-09-29T08:23:48;2.17;;;1.90;;
39994;SDS011;25686;51.908;10.418;2022-09-29T08:25:50;1.73;;;1.63;;
39994;SDS011;25686;51.908;10.418;2022-09-29T08:27:58;2.30;;;1.70;;
39994;SDS011;25686;51.908;10.418;2022-09-29T08:29:59;3.00;;;1.48;;
39994;SDS011;25686;51.908;10.418;2022-09-29T08:32:00;2.55;;;1.63;;
39994;SDS011;25686;51.908;10.418;2022-09-29T08:34:01;2.45;;;1.50;;
39994;SDS011;25686;51.908;10.418;2022-09-29T08:36:03;2.00;;;1.48;;
39994;SDS011;25686;51.908;10.418;2022-09-29T08:38:13;2.72;;;1.50;;
39994;SDS011;25686;51.908;10.418;2022-09-29T08:40:14;1.63;;;1.42;;
39994;SDS011;25686;51.908;10.418;2022-09-29T08:42:19;1.50;;;1.30;;
39994;SDS011;25686;51.908;10.418;2022-09-29T08:44:33;1.40;;;1.30;;
39994;SDS011;25686;51.908;10.418;2022-09-29T08:46:37;2.97;;;1.10;;
39994;SDS011;25686;51.908;10.418;2022-09-29T08:48:40;2.47;;;1.50;;
39994;SDS011;25686;51.908;10.418;2022-09-29T08:50:44;2.95;;;1.15;;
39994;SDS011;25686;51.908;10.418;2022-09-29T08:52:48;1.35;;;1.25;;
39994;SDS011;25686;51.908;10.418;2022-09-29T08:54:55;3.03;;;1.10;;
39994;SDS011;25686;51.908;10.418;2022-09-29T08:56:59;1.42;;;1.20;;
39994;SDS011;25686;51.908;10.418;2022-09-29T08:59:00;1.08;;;1.00;;
39994;SDS011;25686;51.908;10.418;2022-09-29T09:20:51;0.80;;;0.80;;
39994;SDS011;25686;51.908;10.418;2022-09-29T09:22:56;0.95;;;0.90;;
39994;SDS011;25686;51.908;10.418;2022-09-29T09:24:58;1.10;;;1.00;;
39994;SDS011;25686;51.908;10.418;2022-09-29T09:27:01;1.38;;;0.90;;
39994;SDS011;25686;51.908;10.418;2022-09-29T09:29:04;1.20;;;0.80;;
39994;SDS011;25686;51.908;10.418;2022-09-29T09:33:29;0.88;;;0.73;;
39994;SDS011;25686;51.908;10.418;2022-09-29T09:36:04;2.28;;;0.80;;
39994;SDS011;25686;51.908;10.418;2022-09-29T09:37:59;1.20;;;0.98;;
39994;SDS011;25686;51.908;10.418;2022-09-29T09:40:06;0.90;;;0.70;;
39994;SDS011;25686;51.908;10.418;2022-09-29T09:42:17;1.80;;;1.23;;
39994;SDS011;25686;51.908;10.418;2022-09-29T09:44:21;4.57;;;1.10;;
39994;SDS011;25686;51.908;10.418;2022-09-29T09:46:32;4.35;;;0.95;;
39994;SDS011;25686;51.908;10.418;2022-09-29T09:48:37;2.92;;;1.05;;
39994;SDS011;25686;51.908;10.418;2022-09-29T09:50:41;1.77;;;1.10;;
39994;SDS011;25686;51.908;10.418;2022-09-29T09:54:44;1.73;;;1.10;;
39994;SDS011;25686;51.908;10.418;2022-09-29T09:58:56;1.20;;;1.13;;
39994;SDS011;25686;51.908;10.418;2022-09-29T10:01:04;3.08;;;1.60;;
39994;SDS011;25686;51.908;10.418;2022-09-29T10:03:11;1.17;;;1.13;;
39994;SDS011;25686;51.908;10.418;2022-09-29T10:05:16;2.45;;;1.10;;
39994;SDS011;25686;51.908;10.418;2022-09-29T10:07:21;1.42;;;1.10;;
39994;SDS011;25686;51.908;10.418;2022-09-29T10:09:22;1.00;;;1.00;;
39994;SDS011;25686;51.908;10.418;2022-09-29T10:11:24;1.52;;;1.10;;
39994;SDS011;25686;51.908;10.418;2022-09-29T10:13:27;0.70;;;0.70;;
39994;SDS011;25686;51.908;10.418;2022-09-29T10:15:35;1.23;;;0.88;;
39994;SDS011;25686;51.908;10.418;2022-09-29T10:17:41;1.58;;;1.05;;
39994;SDS011;25686;51.908;10.418;2022-09-29T10:21:50;1.42;;;1.33;;
39994;SDS011;25686;51.908;10.418;2022-09-29T10:23:55;0.70;;;0.70;;
39994;SDS011;25686;51.908;10.418;2022-09-29T10:25:58;2.70;;;0.90;;
39994;SDS011;25686;51.908;10.418;2022-09-29T10:27:59;1.48;;;0.98;;
39994;SDS011;25686;51.908;10.418;2022-09-29T10:30:00;1.55;;;1.35;;
39994;SDS011;25686;51.908;10.418;2022-09-29T10:32:12;0.90;;;0.90;;
39994;SDS011;25686;51.908;10.418;2022-09-29T10:34:20;2.38;;;1.00;;
39994;SDS011;25686;51.908;10.418;2022-09-29T10:36:24;1.00;;;0.90;;
39994;SDS011;25686;51.908;10.418;2022-09-29T10:38:25;0.70;;;0.70;;
39994;SDS011;25686;51.908;10.418;2022-09-29T10:40:27;1.30;;;0.70;;
39994;SDS011;25686;51.908;10.418;2022-09-29T10:42:31;1.10;;;0.73;;
39994;SDS011;25686;51.908;10.418;2022-09-29T10:44:36;0.93;;;0.90;;
39994;SDS011;25686;51.908;10.418;2022-09-29T10:46:54;1.38;;;0.80;;
39994;SDS011;25686;51.908;10.418;2022-09-29T10:51:13;0.90;;;0.90;;
39994;SDS011;25686;51.908;10.418;2022-09-29T10:55:35;1.45;;;0.75;;
39994;SDS011;25686;51.908;10.418;2022-09-29T10:57:46;1.00;;;0.70;;
39994;SDS011;25686;51.908;10.418;2022-09-29T10:59:48;3.25;;;1.00;;
39994;SDS011;25686;51.908;10.418;2022-09-29T11:01:55;1.40;;;1.30;;
39994;SDS011;25686;51.908;10.418;2022-09-29T11:04:06;0.90;;;0.90;;
39994;SDS011;25686;51.908;10.418;2022-09-29T11:06:15;0.60;;;0.60;;
39994;SDS011;25686;51.908;10.418;2022-09-29T11:08:16;0.60;;;0.60;;
39994;SDS011;25686;51.908;10.418;2022-09-29T11:10:28;0.80;;;0.65;;
39994;SDS011;25686;51.908;10.418;2022-09-29T11:12:31;0.70;;;0.70;;
39994;SDS011;25686;51.908;10.418;2022-09-29T11:16:37;1.05;;;0.80;;
39994;SDS011;25686;51.908;10.418;2022-09-29T11:18:38;0.70;;;0.70;;
39994;SDS011;25686;51.908;10.418;2022-09-29T11:20:39;1.02;;;0.70;;
39994;SDS011;25686;51.908;10.418;2022-09-29T11:29:05;0.52;;;0.50;;
39994;SDS011;25686;51.908;10.418;2022-09-29T11:40:07;0.73;;;0.60;;
39994;SDS011;25686;51.908;10.418;2022-09-29T11:42:21;2.17;;;0.68;;
39994;SDS011;25686;51.908;10.418;2022-09-29T11:44:31;0.50;;;0.50;;
39994;SDS011;25686;51.908;10.418;2022-09-29T11:49:38;0.75;;;0.70;;
39994;SDS011;25686;51.908;10.418;2022-09-29T11:53:21;0.82;;;0.60;;
39994;SDS011;25686;51.908;10.418;2022-09-29T11:57:56;0.65;;;0.65;;
39994;SDS011;25686;51.908;10.418;2022-09-29T12:00:02;2.90;;;0.90;;
39994;SDS011;25686;51.908;10.418;2022-09-29T12:10:55;0.80;;;0.80;;
39994;SDS011;25686;51.908;10.418;2022-09-29T12:13:05;1.10;;;0.88;;
39994;SDS011;25686;51.908;10.418;2022-09-29T12:17:14;1.05;;;0.95;;
39994;SDS011;25686;51.908;10.418;2022-09-29T12:19:18;1.00;;;1.00;;
39994;SDS011;25686;51.908;10.418;2022-09-29T12:21:31;1.10;;;1.05;;
39994;SDS011;25686;51.908;10.418;2022-09-29T12:23:33;1.50;;;0.90;;
39994;SDS011;25686;51.908;10.418;2022-09-29T12:25:38;1.50;;;1.00;;
39994;SDS011;25686;51.908;10.418;2022-09-29T12:27:40;2.00;;;1.20;;
39994;SDS011;25686;51.908;10.418;2022-09-29T12:29:43;2.10;;;1.30;;
39994;SDS011;25686;51.908;10.418;2022-09-29T12:31:47;1.30;;;1.20;;
39994;SDS011;25686;51.908;10.418;2022-09-29T12:33:49;1.80;;;1.27;;
39994;SDS011;25686;51.908;10.418;2022-09-29T12:36:03;3.53;;;1.20;;
39994;SDS011;25686;51.908;10.418;2022-09-29T12:38:29;1.95;;;1.00;;
39994;SDS011;25686;51.908;10.418;2022-09-29T12:40:37;2.20;;;1.00;;
39994;SDS011;25686;51.908;10.418;2022-09-29T12:44:49;1.30;;;1.20;;
39994;SDS011;25686;51.908;10.418;2022-09-29T12:47:06;1.52;;;1.05;;
39994;SDS011;25686;51.908;10.418;2022-09-29T12:49:25;1.08;;;0.80;;
39994;SDS011;25686;51.908;10.418;2022-09-29T12:51:32;1.05;;;0.90;;
39994;SDS011;25686;51.908;10.418;2022-09-29T12:53:36;1.70;;;1.10;;
39994;SDS011;25686;51.908;10.418;2022-09-29T12:57:59;3.63;;;0.90;;
39994;SDS011;25686;51.908;10.418;2022-09-29T13:00:07;1.35;;;0.93;;
39994;SDS011;25686;51.908;10.418;2022-09-29T13:02:20;1.40;;;1.00;;
39994;SDS011;25686;51.908;10.418;2022-09-29T13:06:44;3.53;;;1.05;;
39994;SDS011;25686;51.908;10.418;2022-09-29T13:20:04;1.55;;;0.70;;
39994;SDS011;25686;51.908;10.418;2022-09-29T13:28:35;1.27;;;0.80;;
39994;SDS011;25686;51.908;10.418;2022-09-29T13:30:38;0.63;;;0.63;;
39994;SDS011;25686;51.908;10.418;2022-09-29T13:35:10;0.80;;;0.77;;
39994;SDS011;25686;51.908;10.418;2022-09-29T13:37:16;1.48;;;0.75;;
39994;SDS011;25686;51.908;10.418;2022-09-29T13:39:19;1.02;;;0.70;;
39994;SDS011;25686;51.908;10.418;2022-09-29T13:45:42;2.15;;;0.80;;
39994;SDS011;25686;51.908;10.418;2022-09-29T13:47:47;1.58;;;1.00;;
39994;SDS011;25686;51.908;10.418;2022-09-29T13:49:48;2.20;;;0.80;;
39994;SDS011;25686;51.908;10.418;2022-09-29T13:54:51;2.47;;;0.70;;
39994;SDS011;25686;51.908;10.418;2022-09-29T13:56:20;2.58;;;0.77;;
39994;SDS011;25686;51.908;10.418;2022-09-29T14:00:23;1.00;;;0.70;;
39994;SDS011;25686;51.908;10.418;2022-09-29T14:06:40;1.00;;;0.80;;
39994;SDS011;25686;51.908;10.418;2022-09-29T14:08:48;1.50;;;1.00;;
39994;SDS011;25686;51.908;10.418;2022-09-29T14:10:59;1.20;;;1.05;;
39994;SDS011;25686;51.908;10.418;2022-09-29T14:15:09;1.48;;;1.00;;
39994;SDS011;25686;51.908;10.418;2022-09-29T14:21:49;0.95;;;0.90;;
39994;SDS011;25686;51.908;10.418;2022-09-29T14:23:52;1.35;;;1.25;;
39994;SDS011;25686;51.908;10.418;2022-09-29T14:25:54;1.05;;;0.95;;
39994;SDS011;25686;51.908;10.418;2022-09-29T14:32:19;0.80;;;0.80;;
39994;SDS011;25686;51.908;10.418;2022-09-29T14:34:22;3.47;;;0.90;;
39994;SDS011;25686;51.908;10.418;2022-09-29T14:36:24;4.10;;;1.00;;